createdAt,value
2018-02-14T00:00:25.896Z,966.55
2018-02-14T00:01:25.884Z,966.58
2018-02-14T00:02:25.855Z,966.59
2018-02-14T00:03:25.834Z,966.60
2018-02-14T00:04:25.820Z,966.56
2018-02-14T00:05:25.800Z,966.59
2018-02-14T00:06:25.772Z,966.60
2018-02-14T00:07:25.758Z,966.58
2018-02-14T00:08:25.731Z,966.55
2018-02-14T00:09:25.708Z,966.57
2018-02-14T00:10:25.690Z,966.58
2018-02-14T00:11:25.667Z,966.56
2018-02-14T00:12:25.646Z,966.55
2018-02-14T00:13:25.628Z,966.60
2018-02-14T00:14:25.608Z,966.60
2018-02-14T00:15:25.596Z,966.60
2018-02-14T00:16:25.569Z,966.62
2018-02-14T00:17:25.541Z,966.69
2018-02-14T00:18:25.530Z,966.70
2018-02-14T00:19:25.499Z,966.74
2018-02-14T00:20:25.483Z,966.70
2018-02-14T00:21:25.460Z,966.70
2018-02-14T00:22:25.437Z,966.66
2018-02-14T00:23:25.417Z,966.69
2018-02-14T00:24:25.392Z,966.67
2018-02-14T00:25:25.372Z,966.70
2018-02-14T00:26:25.358Z,966.70
2018-02-14T00:27:25.331Z,966.68
2018-02-14T00:28:25.308Z,966.69
2018-02-14T00:29:25.291Z,966.72
2018-02-14T00:30:25.269Z,966.72
2018-02-14T00:31:25.254Z,966.72
2018-02-14T00:32:25.224Z,966.73
2018-02-14T00:33:25.204Z,966.67
2018-02-14T00:34:25.182Z,966.68
2018-02-14T00:35:25.165Z,966.64
2018-02-14T00:36:25.139Z,966.69
2018-02-14T00:37:25.121Z,966.73
2018-02-14T00:38:25.105Z,966.69
2018-02-14T00:39:25.084Z,966.74
2018-02-14T00:40:25.063Z,966.74
2018-02-14T00:41:25.039Z,966.72
2018-02-14T00:42:25.011Z,966.76
2018-02-14T00:43:24.995Z,966.73
2018-02-14T00:44:24.968Z,966.77
2018-02-14T00:45:24.953Z,966.79
2018-02-14T00:46:24.929Z,966.79
2018-02-14T00:47:24.911Z,966.79
2018-02-14T00:48:24.883Z,966.78
2018-02-14T00:49:24.863Z,966.82
2018-02-14T00:50:24.849Z,966.79
2018-02-14T00:51:24.821Z,966.78
2018-02-14T00:52:24.801Z,966.77
2018-02-14T00:53:24.780Z,966.82
2018-02-14T00:54:24.764Z,966.80
2018-02-14T00:55:24.738Z,966.83
2018-02-14T00:56:24.716Z,966.78
2018-02-14T00:57:24.697Z,966.82
2018-02-14T00:58:24.674Z,966.82
2018-02-14T00:59:24.652Z,966.76
2018-02-14T01:00:24.629Z,966.79
2018-02-14T01:01:24.605Z,966.78
2018-02-14T01:02:24.588Z,966.84
2018-02-14T01:03:24.568Z,966.81
2018-02-14T01:04:24.541Z,966.81
2018-02-14T01:05:24.522Z,966.83
2018-02-14T01:06:24.502Z,966.77
2018-02-14T01:07:24.485Z,966.82
2018-02-14T01:08:24.457Z,966.81
2018-02-14T01:09:24.436Z,966.83
2018-02-14T01:10:24.415Z,966.82
2018-02-14T01:11:24.394Z,966.84
2018-02-14T01:12:24.379Z,966.83
2018-02-14T01:13:24.352Z,966.89
2018-02-14T01:14:24.334Z,966.84
2018-02-14T01:15:24.309Z,966.85
2018-02-14T01:16:24.297Z,966.89
2018-02-14T01:17:24.272Z,966.90
2018-02-14T01:18:24.242Z,966.92
2018-02-14T01:19:24.223Z,966.92
2018-02-14T01:20:24.209Z,966.93
2018-02-14T01:21:24.179Z,966.93
2018-02-14T01:22:24.156Z,966.92
2018-02-14T01:23:24.137Z,966.97
2018-02-14T01:24:24.118Z,966.93
2018-02-14T01:25:24.097Z,966.89
2018-02-14T01:26:24.072Z,966.91
2018-02-14T01:27:24.050Z,966.91
2018-02-14T01:28:24.037Z,966.91
2018-02-14T01:29:24.014Z,966.89
2018-02-14T01:30:23.987Z,966.92
2018-02-14T01:31:23.973Z,966.93
2018-02-14T01:32:23.943Z,966.91
2018-02-14T01:33:23.929Z,966.91
2018-02-14T01:34:23.901Z,966.90
2018-02-14T01:35:23.880Z,966.94
2018-02-14T01:36:23.859Z,966.92
2018-02-14T01:37:23.838Z,966.92
2018-02-14T01:38:23.817Z,966.90
2018-02-14T01:39:23.795Z,966.94
2018-02-14T01:40:23.771Z,966.94
2018-02-14T01:41:23.753Z,966.91
2018-02-14T01:42:23.729Z,966.87
2018-02-14T01:43:23.710Z,966.93
2018-02-14T01:44:23.687Z,966.94
2018-02-14T01:45:23.673Z,966.99
2018-02-14T01:46:23.644Z,966.94
2018-02-14T01:47:23.623Z,966.96
2018-02-14T01:48:23.601Z,966.97
2018-02-14T01:49:23.617Z,967.02
2018-02-14T01:50:23.566Z,967.00
2018-02-14T01:51:23.548Z,966.97
2018-02-14T01:52:23.529Z,966.99
2018-02-14T01:53:23.494Z,967.03
2018-02-14T01:54:23.473Z,967.02
2018-02-14T01:55:23.465Z,966.98
2018-02-14T01:56:23.432Z,967.04
2018-02-14T01:57:23.412Z,967.04
2018-02-14T01:58:23.389Z,967.05
2018-02-14T01:59:23.368Z,967.07
2018-02-14T02:00:23.348Z,967.04
2018-02-14T02:01:23.326Z,967.01
2018-02-14T02:02:23.306Z,967.09
2018-02-14T02:03:23.283Z,967.08
2018-02-14T02:04:23.264Z,967.08
2018-02-14T02:05:23.241Z,967.09
2018-02-14T02:06:23.222Z,967.09
2018-02-14T02:07:23.200Z,967.06
2018-02-14T02:08:23.178Z,967.09
2018-02-14T02:09:23.155Z,967.10
2018-02-14T02:10:23.143Z,967.11
2018-02-14T02:11:23.115Z,967.13
2018-02-14T02:12:23.091Z,967.12
2018-02-14T02:13:23.072Z,967.16
2018-02-14T02:14:23.049Z,967.16
2018-02-14T02:15:23.030Z,967.13
2018-02-14T02:16:23.010Z,967.11
2018-02-14T02:17:22.989Z,967.19
2018-02-14T02:18:22.967Z,967.15
2018-02-14T02:19:22.950Z,967.12
2018-02-14T02:20:22.922Z,967.13
2018-02-14T02:21:22.905Z,967.16
2018-02-14T02:22:22.887Z,967.15
2018-02-14T02:23:22.860Z,967.12
2018-02-14T02:24:22.839Z,967.13
2018-02-14T02:25:22.823Z,967.14
2018-02-14T02:26:22.796Z,967.18
2018-02-14T02:27:22.774Z,967.16
2018-02-14T02:28:22.754Z,967.19
2018-02-14T02:29:22.734Z,967.20
2018-02-14T02:30:22.717Z,967.20
2018-02-14T02:31:22.696Z,967.26
2018-02-14T02:32:22.670Z,967.20
2018-02-14T02:33:22.652Z,967.21
2018-02-14T02:34:22.627Z,967.23
2018-02-14T02:35:22.614Z,967.24
2018-02-14T02:36:22.590Z,967.24
2018-02-14T02:37:22.566Z,967.23
2018-02-14T02:38:22.545Z,967.21
2018-02-14T02:39:22.522Z,967.22
2018-02-14T02:40:22.500Z,967.22
2018-02-14T02:41:22.483Z,967.24
2018-02-14T02:42:22.457Z,967.18
2018-02-14T02:43:22.444Z,967.18
2018-02-14T02:44:22.418Z,967.22
2018-02-14T02:45:22.399Z,967.21
2018-02-14T02:46:22.379Z,967.16
2018-02-14T02:47:22.355Z,967.22
2018-02-14T02:48:22.334Z,967.18
2018-02-14T02:49:22.312Z,967.15
2018-02-14T02:50:22.290Z,967.19
2018-02-14T02:51:22.271Z,967.18
2018-02-14T02:52:22.247Z,967.18
2018-02-14T02:53:22.234Z,967.18
2018-02-14T02:54:22.210Z,967.19
2018-02-14T02:55:22.195Z,967.16
2018-02-14T02:56:22.168Z,967.19
2018-02-14T02:57:22.147Z,967.17
2018-02-14T02:58:22.122Z,967.18
2018-02-14T02:59:22.107Z,967.17
2018-02-14T03:00:22.083Z,967.19
2018-02-14T03:01:22.060Z,967.18
2018-02-14T03:02:22.036Z,967.23
2018-02-14T03:03:22.016Z,967.23
2018-02-14T03:04:21.995Z,967.23
2018-02-14T03:05:21.974Z,967.19
2018-02-14T03:06:21.953Z,967.23
2018-02-14T03:07:21.937Z,967.24
2018-02-14T03:08:21.910Z,967.28
2018-02-14T03:09:21.890Z,967.29
2018-02-14T03:10:21.872Z,967.30
2018-02-14T03:11:21.851Z,967.27
2018-02-14T03:12:21.828Z,967.25
2018-02-14T03:13:21.812Z,967.22
2018-02-14T03:14:21.783Z,967.21
2018-02-14T03:15:21.770Z,967.25
2018-02-14T03:16:21.747Z,967.20
2018-02-14T03:17:21.721Z,967.26
2018-02-14T03:18:21.705Z,967.24
2018-02-14T03:19:21.686Z,967.30
2018-02-14T03:20:21.656Z,967.31
2018-02-14T03:21:21.638Z,967.36
2018-02-14T03:22:21.616Z,967.35
2018-02-14T03:23:21.596Z,967.33
2018-02-14T03:24:21.574Z,967.38
2018-02-14T03:25:21.554Z,967.38
2018-02-14T03:26:21.530Z,967.39
2018-02-14T03:27:21.510Z,967.43
2018-02-14T03:28:21.493Z,967.45
2018-02-14T03:29:21.468Z,967.49
2018-02-14T03:30:21.445Z,967.47
2018-02-14T03:31:21.429Z,967.52
2018-02-14T03:32:21.406Z,967.56
2018-02-14T03:33:21.383Z,967.59
2018-02-14T03:34:21.361Z,967.55
2018-02-14T03:35:21.343Z,967.55
2018-02-14T03:36:21.318Z,967.60
2018-02-14T03:37:21.297Z,967.64
2018-02-14T03:38:21.277Z,967.66
2018-02-14T03:39:21.262Z,967.69
2018-02-14T03:40:21.238Z,967.74
2018-02-14T03:41:21.218Z,967.73
2018-02-14T03:42:21.201Z,967.73
2018-02-14T03:43:21.174Z,967.81
2018-02-14T03:44:21.152Z,967.76
2018-02-14T03:45:21.129Z,967.73
2018-02-14T03:46:21.111Z,967.76
2018-02-14T03:47:21.089Z,967.74
2018-02-14T03:48:21.069Z,967.80
2018-02-14T03:49:21.044Z,967.77
2018-02-14T03:50:21.023Z,967.79
2018-02-14T03:51:21.006Z,967.78
2018-02-14T03:52:20.980Z,967.79
2018-02-14T03:53:20.962Z,967.81
2018-02-14T03:54:20.948Z,967.75
2018-02-14T03:55:20.918Z,967.84
2018-02-14T03:56:20.897Z,967.76
2018-02-14T03:57:20.877Z,967.83
2018-02-14T03:58:20.855Z,967.83
2018-02-14T03:59:20.840Z,967.83
2018-02-14T04:00:20.819Z,967.80
2018-02-14T04:01:20.789Z,967.86
2018-02-14T04:02:20.774Z,967.87
2018-02-14T04:03:20.749Z,967.89
2018-02-14T04:04:20.731Z,967.89
2018-02-14T04:05:20.706Z,967.95
2018-02-14T04:06:20.686Z,967.95
2018-02-14T04:07:20.668Z,967.98
2018-02-14T04:08:20.646Z,968.00
2018-02-14T04:09:20.627Z,968.01
2018-02-14T04:10:20.602Z,968.03
2018-02-14T04:11:20.586Z,968.03
2018-02-14T04:12:20.565Z,968.02
2018-02-14T04:13:20.537Z,968.02
2018-02-14T04:14:20.521Z,968.04
2018-02-14T04:15:20.501Z,968.00
2018-02-14T04:16:20.476Z,968.04
2018-02-14T04:17:20.455Z,968.06
2018-02-14T04:18:20.432Z,968.08
2018-02-14T04:19:20.411Z,968.12
2018-02-14T04:20:20.389Z,968.13
2018-02-14T04:21:20.367Z,968.13
2018-02-14T04:22:20.348Z,968.15
2018-02-14T04:23:20.328Z,968.13
2018-02-14T04:24:20.303Z,968.17
2018-02-14T04:25:20.282Z,968.19
2018-02-14T04:26:20.261Z,968.19
2018-02-14T04:27:20.246Z,968.21
2018-02-14T04:28:20.219Z,968.22
2018-02-14T04:29:20.204Z,968.23
2018-02-14T04:30:20.180Z,968.28
2018-02-14T04:31:20.157Z,968.25
2018-02-14T04:32:20.134Z,968.37
2018-02-14T04:33:20.122Z,968.33
2018-02-14T04:34:20.092Z,968.39
2018-02-14T04:35:20.076Z,968.40
2018-02-14T04:36:20.050Z,968.37
2018-02-14T04:37:20.029Z,968.42
2018-02-14T04:38:20.008Z,968.41
2018-02-14T04:39:19.986Z,968.42
2018-02-14T04:40:19.963Z,968.44
2018-02-14T04:41:19.943Z,968.44
2018-02-14T04:42:19.920Z,968.42
2018-02-14T04:43:19.906Z,968.47
2018-02-14T04:44:19.878Z,968.46
2018-02-14T04:45:19.859Z,968.49
2018-02-14T04:46:19.838Z,968.48
2018-02-14T04:47:19.818Z,968.50
2018-02-14T04:48:19.801Z,968.53
2018-02-14T04:49:19.782Z,968.54
2018-02-14T04:50:19.753Z,968.57
2018-02-14T04:51:19.734Z,968.52
2018-02-14T04:52:19.709Z,968.55
2018-02-14T04:53:19.690Z,968.58
2018-02-14T04:54:19.666Z,968.57
2018-02-14T04:55:19.645Z,968.58
2018-02-14T04:56:19.623Z,968.62
2018-02-14T04:57:19.605Z,968.63
2018-02-14T04:58:19.581Z,968.70
2018-02-14T04:59:19.561Z,968.67
2018-02-14T05:00:19.543Z,968.71
2018-02-14T05:01:19.524Z,968.69
2018-02-14T05:02:19.496Z,968.74
2018-02-14T05:03:19.479Z,968.73
2018-02-14T05:04:19.453Z,968.73
2018-02-14T05:05:19.432Z,968.74
2018-02-14T05:06:19.413Z,968.79
2018-02-14T05:07:19.390Z,968.80
2018-02-14T05:08:19.376Z,968.81
2018-02-14T05:09:19.355Z,968.84
2018-02-14T05:10:19.328Z,968.83
2018-02-14T05:11:19.308Z,968.84
2018-02-14T05:12:19.284Z,968.83
2018-02-14T05:13:19.262Z,968.80
2018-02-14T05:14:19.244Z,968.80
2018-02-14T05:15:19.220Z,968.83
2018-02-14T05:16:19.200Z,968.83
2018-02-14T05:17:19.178Z,968.86
2018-02-14T05:18:19.162Z,968.92
2018-02-14T05:19:19.136Z,968.88
2018-02-14T05:20:19.115Z,968.90
2018-02-14T05:21:19.092Z,968.99
2018-02-14T05:22:19.072Z,968.98
2018-02-14T05:23:19.052Z,969.01
2018-02-14T05:24:19.029Z,968.99
2018-02-14T05:25:19.016Z,968.95
2018-02-14T05:26:18.991Z,968.99
2018-02-14T05:27:18.966Z,968.97
2018-02-14T05:28:18.945Z,968.98
2018-02-14T05:29:18.924Z,968.98
2018-02-14T05:30:18.908Z,969.04
2018-02-14T05:31:18.891Z,969.02
2018-02-14T05:32:18.859Z,969.03
2018-02-14T05:33:18.836Z,969.06
2018-02-14T05:34:18.828Z,969.04
2018-02-14T05:35:18.797Z,969.06
2018-02-14T05:36:18.777Z,969.10
2018-02-14T05:37:18.752Z,969.08
2018-02-14T05:38:18.732Z,969.14
2018-02-14T05:39:18.714Z,969.11
2018-02-14T05:40:18.691Z,969.09
2018-02-14T05:41:18.669Z,969.15
2018-02-14T05:42:18.648Z,969.13
2018-02-14T05:43:18.626Z,969.16
2018-02-14T05:44:18.606Z,969.20
2018-02-14T05:45:18.585Z,969.13
2018-02-14T05:46:18.588Z,969.20
2018-02-14T05:47:18.543Z,969.20
2018-02-14T05:48:18.519Z,969.23
2018-02-14T05:49:18.502Z,969.24
2018-02-14T05:50:18.479Z,969.24
2018-02-14T05:51:18.458Z,969.25
2018-02-14T05:52:18.441Z,969.28
2018-02-14T05:53:18.414Z,969.27
2018-02-14T05:54:18.393Z,969.29
2018-02-14T05:55:18.373Z,969.32
2018-02-14T05:56:18.403Z,969.35
2018-02-14T05:57:18.332Z,969.34
2018-02-14T05:58:18.316Z,969.36
2018-02-14T05:59:18.289Z,969.40
2018-02-14T06:00:18.271Z,969.40
2018-02-14T06:01:18.247Z,969.40
2018-02-14T06:02:18.226Z,969.40
2018-02-14T06:03:18.240Z,969.41
2018-02-14T06:04:18.187Z,969.40
2018-02-14T06:05:18.164Z,969.45
2018-02-14T06:06:18.145Z,969.47
2018-02-14T06:07:18.120Z,969.48
2018-02-14T06:08:18.113Z,969.53
2018-02-14T06:09:18.079Z,969.53
2018-02-14T06:10:18.065Z,969.57
2018-02-14T06:11:18.039Z,969.54
2018-02-14T06:12:18.019Z,969.62
2018-02-14T06:13:17.997Z,969.57
2018-02-14T06:14:17.970Z,969.62
2018-02-14T06:15:17.953Z,969.61
2018-02-14T06:16:17.937Z,969.65
2018-02-14T06:17:17.916Z,969.68
2018-02-14T06:18:17.892Z,969.70
2018-02-14T06:19:17.864Z,969.64
2018-02-14T06:20:17.843Z,969.72
2018-02-14T06:21:17.825Z,969.69
2018-02-14T06:22:17.802Z,969.78
2018-02-14T06:23:17.784Z,969.83
2018-02-14T06:24:17.773Z,969.83
2018-02-14T06:25:17.739Z,969.85
2018-02-14T06:26:17.720Z,969.87
2018-02-14T06:27:17.699Z,969.86
2018-02-14T06:28:17.677Z,969.89
2018-02-14T06:29:17.661Z,969.93
2018-02-14T06:30:17.640Z,969.88
2018-02-14T06:31:17.613Z,969.94
2018-02-14T06:32:17.592Z,969.95
2018-02-14T06:33:17.576Z,969.99
2018-02-14T06:34:17.552Z,969.99
2018-02-14T06:35:17.535Z,970.05
2018-02-14T06:36:17.513Z,970.05
2018-02-14T06:37:17.495Z,970.05
2018-02-14T06:38:17.467Z,970.08
2018-02-14T06:39:17.447Z,970.06
2018-02-14T06:40:17.430Z,970.07
2018-02-14T06:41:17.445Z,970.07
2018-02-14T06:42:17.385Z,970.06
2018-02-14T06:43:17.364Z,970.10
2018-02-14T06:44:17.350Z,970.12
2018-02-14T06:45:17.325Z,970.18
2018-02-14T06:46:17.306Z,970.16
2018-02-14T06:47:17.281Z,970.20
2018-02-14T06:48:17.267Z,970.19
2018-02-14T06:49:17.239Z,970.19
2018-02-14T06:50:17.223Z,970.19
2018-02-14T06:51:17.201Z,970.20
2018-02-14T06:52:17.175Z,970.24
2018-02-14T06:53:17.163Z,970.24
2018-02-14T06:54:17.136Z,970.24
2018-02-14T06:55:17.121Z,970.23
2018-02-14T06:56:17.096Z,970.26
2018-02-14T06:57:17.077Z,970.30
2018-02-14T06:58:17.055Z,970.31
2018-02-14T06:59:17.031Z,970.26
2018-02-14T07:00:17.009Z,970.27
2018-02-14T07:01:16.990Z,970.26
2018-02-14T07:02:16.976Z,970.24
2018-02-14T07:03:16.948Z,970.26
2018-02-14T07:04:16.924Z,970.29
2018-02-14T07:05:16.904Z,970.31
2018-02-14T07:06:16.885Z,970.32
2018-02-14T07:07:16.873Z,970.33
2018-02-14T07:08:16.850Z,970.35
2018-02-14T07:09:16.830Z,970.33
2018-02-14T07:10:16.803Z,970.33
2018-02-14T07:11:16.780Z,970.31
2018-02-14T07:12:16.768Z,970.33
2018-02-14T07:13:16.739Z,970.38
2018-02-14T07:14:16.718Z,970.38
2018-02-14T07:15:16.702Z,970.35
2018-02-14T07:16:16.680Z,970.43
2018-02-14T07:17:16.656Z,970.45
2018-02-14T07:18:16.642Z,970.41
2018-02-14T07:19:16.620Z,970.44
2018-02-14T07:20:16.593Z,970.40
2018-02-14T07:21:16.580Z,970.47
2018-02-14T07:22:16.558Z,970.50
2018-02-14T07:23:16.534Z,970.45
2018-02-14T07:24:16.521Z,970.50
2018-02-14T07:25:16.496Z,970.51
2018-02-14T07:26:16.471Z,970.49
2018-02-14T07:27:16.456Z,970.51
2018-02-14T07:28:16.429Z,970.48
2018-02-14T07:29:16.412Z,970.56
2018-02-14T07:30:16.395Z,970.52
2018-02-14T07:31:16.374Z,970.53
2018-02-14T07:32:16.353Z,970.52
2018-02-14T07:33:16.332Z,970.53
2018-02-14T07:34:16.307Z,970.57
2018-02-14T07:35:16.292Z,970.56
2018-02-14T07:36:16.266Z,970.65
2018-02-14T07:37:16.245Z,970.67
2018-02-14T07:38:16.229Z,970.73
2018-02-14T07:39:16.206Z,970.75
2018-02-14T07:40:16.184Z,970.76
2018-02-14T07:41:16.165Z,970.75
2018-02-14T07:42:16.144Z,970.79
2018-02-14T07:43:16.123Z,970.77
2018-02-14T07:44:16.098Z,970.80
2018-02-14T07:45:16.077Z,970.83
2018-02-14T07:46:16.059Z,970.83
2018-02-14T07:47:16.049Z,970.91
2018-02-14T07:48:16.019Z,970.94
2018-02-14T07:49:16.006Z,970.96
2018-02-14T07:50:15.980Z,970.95
2018-02-14T07:51:15.959Z,970.95
2018-02-14T07:52:15.946Z,970.98
2018-02-14T07:53:15.922Z,971.00
2018-02-14T07:54:15.897Z,971.03
2018-02-14T07:55:15.881Z,971.02
2018-02-14T07:56:15.853Z,970.98
2018-02-14T07:57:15.835Z,971.00
2018-02-14T07:58:15.813Z,971.05
2018-02-14T07:59:15.795Z,971.02
2018-02-14T08:00:15.773Z,971.01
2018-02-14T08:01:15.762Z,971.05
2018-02-14T08:02:15.732Z,971.02
2018-02-14T08:03:15.713Z,971.07
2018-02-14T08:04:15.697Z,971.08
2018-02-14T08:05:15.677Z,971.03
2018-02-14T08:06:15.651Z,971.09
2018-02-14T08:07:15.637Z,971.10
2018-02-14T08:08:15.611Z,971.11
2018-02-14T08:09:15.632Z,971.15
2018-02-14T08:10:15.569Z,971.09
2018-02-14T08:11:15.552Z,971.12
2018-02-14T08:12:15.529Z,971.13
2018-02-14T08:13:15.510Z,971.12
2018-02-14T08:14:15.493Z,971.09
2018-02-14T08:15:15.469Z,971.11
2018-02-14T08:16:15.450Z,971.14
2018-02-14T08:17:15.432Z,971.16
2018-02-14T08:18:15.415Z,971.11
2018-02-14T08:19:15.393Z,971.12
2018-02-14T08:20:15.377Z,971.10
2018-02-14T08:21:15.349Z,971.09
2018-02-14T08:22:15.332Z,971.13
2018-02-14T08:23:15.316Z,971.18
2018-02-14T08:24:15.295Z,971.16
2018-02-14T08:25:15.273Z,971.21
2018-02-14T08:26:15.249Z,971.20
2018-02-14T08:27:15.229Z,971.23
2018-02-14T08:28:15.214Z,971.25
2018-02-14T08:29:15.188Z,971.31
2018-02-14T08:30:15.177Z,971.26
2018-02-14T08:31:15.147Z,971.36
2018-02-14T08:32:15.126Z,971.33
2018-02-14T08:33:15.109Z,971.29
2018-02-14T08:34:15.090Z,971.35
2018-02-14T08:35:15.069Z,971.34
2018-02-14T08:36:15.047Z,971.34
2018-02-14T08:37:15.033Z,971.36
2018-02-14T08:38:15.007Z,971.35
2018-02-14T08:39:14.989Z,971.35
2018-02-14T08:40:14.974Z,971.36
2018-02-14T08:41:14.949Z,971.34
2018-02-14T08:42:14.928Z,971.34
2018-02-14T08:43:14.909Z,971.30
2018-02-14T08:44:14.888Z,971.30
2018-02-14T08:45:14.871Z,971.32
2018-02-14T08:46:14.849Z,971.33
2018-02-14T08:47:14.831Z,971.34
2018-02-14T08:48:14.814Z,971.39
2018-02-14T08:49:14.796Z,971.38
2018-02-14T08:50:14.771Z,971.38
2018-02-14T08:51:14.754Z,971.38
2018-02-14T08:52:14.731Z,971.42
2018-02-14T08:53:14.713Z,971.45
2018-02-14T08:54:14.693Z,971.47
2018-02-14T08:55:14.678Z,971.45
2018-02-14T08:56:14.650Z,971.45
2018-02-14T08:57:14.632Z,971.49
2018-02-14T08:58:14.620Z,971.49
2018-02-14T08:59:14.600Z,971.50
2018-02-14T09:00:14.584Z,971.52
2018-02-14T09:01:14.557Z,971.45
2018-02-14T09:02:14.538Z,971.49
2018-02-14T09:03:14.515Z,971.48
2018-02-14T09:04:14.496Z,971.49
2018-02-14T09:05:14.476Z,971.51
2018-02-14T09:06:14.457Z,971.53
2018-02-14T09:07:14.441Z,971.56
2018-02-14T09:08:14.418Z,971.57
2018-02-14T09:09:14.405Z,971.57
2018-02-14T09:10:14.383Z,971.58
2018-02-14T09:11:14.366Z,971.58
2018-02-14T09:12:14.344Z,971.58
2018-02-14T09:13:14.334Z,971.62
2018-02-14T09:14:14.335Z,971.60
2018-02-14T09:15:14.290Z,971.62
2018-02-14T09:16:14.279Z,971.62
2018-02-14T09:17:14.260Z,971.64
2018-02-14T09:18:14.228Z,971.64
2018-02-14T09:19:14.209Z,971.66
2018-02-14T09:20:14.189Z,971.65
2018-02-14T09:21:14.172Z,971.65
2018-02-14T09:22:14.153Z,971.70
2018-02-14T09:23:14.131Z,971.70
2018-02-14T09:24:14.112Z,971.72
2018-02-14T09:25:14.094Z,971.73
2018-02-14T09:26:14.074Z,971.75
2018-02-14T09:27:14.056Z,971.75
2018-02-14T09:28:14.039Z,971.75
2018-02-14T09:29:14.019Z,971.77
2018-02-14T09:30:14.006Z,971.77
2018-02-14T09:31:13.981Z,971.74
2018-02-14T09:32:13.966Z,971.77
2018-02-14T09:33:13.944Z,971.76
2018-02-14T09:34:13.925Z,971.77
2018-02-14T09:35:13.906Z,971.74
2018-02-14T09:36:13.886Z,971.76
2018-02-14T09:37:13.878Z,971.78
2018-02-14T09:38:13.852Z,971.80
2018-02-14T09:39:13.833Z,971.83
2018-02-14T09:40:13.816Z,971.84
2018-02-14T09:41:13.802Z,971.84
2018-02-14T09:42:13.784Z,971.83
2018-02-14T09:43:13.760Z,971.86
2018-02-14T09:44:13.742Z,971.82
2018-02-14T09:45:13.730Z,971.82
2018-02-14T09:46:13.706Z,971.85
2018-02-14T09:47:13.696Z,971.86
2018-02-14T09:48:13.667Z,971.88
2018-02-14T09:49:13.649Z,971.88
2018-02-14T09:50:13.633Z,971.92
2018-02-14T09:51:13.615Z,971.94
2018-02-14T09:52:13.604Z,971.89
2018-02-14T09:53:13.575Z,971.93
2018-02-14T09:54:13.556Z,971.91
2018-02-14T09:55:13.540Z,971.94
2018-02-14T09:56:13.520Z,971.99
2018-02-14T09:57:13.508Z,971.95
2018-02-14T09:58:13.491Z,971.91
2018-02-14T09:59:13.471Z,971.97
2018-02-14T10:00:13.492Z,972.00
2018-02-14T10:01:13.433Z,971.95
2018-02-14T10:02:13.419Z,971.99
2018-02-14T10:03:13.397Z,971.95
2018-02-14T10:04:13.376Z,971.96
2018-02-14T10:05:13.359Z,971.96
2018-02-14T10:06:13.343Z,971.94
2018-02-14T10:07:13.325Z,972.01
2018-02-14T10:08:13.310Z,972.02
2018-02-14T10:09:13.285Z,972.03
2018-02-14T10:10:13.274Z,972.00
2018-02-14T10:11:13.266Z,972.00
2018-02-14T10:12:13.230Z,972.02
2018-02-14T10:13:13.213Z,972.03
2018-02-14T10:14:13.207Z,972.05
2018-02-14T10:15:13.180Z,972.04
2018-02-14T10:16:13.167Z,972.09
2018-02-14T10:17:13.141Z,972.04
2018-02-14T10:18:13.124Z,972.10
2018-02-14T10:19:13.108Z,972.09
2018-02-14T10:20:13.086Z,972.08
2018-02-14T10:21:13.068Z,972.07
2018-02-14T10:22:13.052Z,972.16
2018-02-14T10:23:13.060Z,972.11
2018-02-14T10:24:13.017Z,972.13
2018-02-14T10:25:13.001Z,972.06
2018-02-14T10:26:12.977Z,972.06
2018-02-14T10:27:12.964Z,972.05
2018-02-14T10:28:12.939Z,972.04
2018-02-14T10:29:12.920Z,972.06
2018-02-14T10:30:12.902Z,972.09
2018-02-14T10:31:12.885Z,972.01
2018-02-14T10:32:12.865Z,972.03
2018-02-14T10:33:12.855Z,972.01
2018-02-14T10:34:12.827Z,972.01
2018-02-14T10:35:12.813Z,972.05
2018-02-14T10:36:12.789Z,972.06
2018-02-14T10:37:12.772Z,972.05
2018-02-14T10:38:12.759Z,972.08
2018-02-14T10:39:12.738Z,972.06
2018-02-14T10:40:12.718Z,972.08
2018-02-14T10:41:12.708Z,972.05
2018-02-14T10:42:12.687Z,972.06
2018-02-14T10:43:12.661Z,972.10
2018-02-14T10:44:12.644Z,972.09
2018-02-14T10:45:12.633Z,972.07
2018-02-14T10:46:12.614Z,972.10
2018-02-14T10:47:12.590Z,972.09
2018-02-14T10:48:12.571Z,972.12
2018-02-14T10:49:12.561Z,972.09
2018-02-14T10:50:12.535Z,972.05
2018-02-14T10:51:12.517Z,972.07
2018-02-14T10:52:12.497Z,972.10
2018-02-14T10:53:12.481Z,972.10
2018-02-14T10:54:12.463Z,972.12
2018-02-14T10:55:12.450Z,972.15
2018-02-14T10:56:12.435Z,972.14
2018-02-14T10:57:12.414Z,972.16
2018-02-14T10:58:12.391Z,972.10
2018-02-14T10:59:12.382Z,972.10
2018-02-14T11:00:12.360Z,972.15
2018-02-14T11:01:12.374Z,972.12
2018-02-14T11:02:12.319Z,972.12
2018-02-14T11:03:12.303Z,972.11
2018-02-14T11:04:12.282Z,972.12
2018-02-14T11:05:12.263Z,972.10
2018-02-14T11:06:12.248Z,972.08
2018-02-14T11:07:12.231Z,972.15
2018-02-14T11:08:12.210Z,972.09
2018-02-14T11:09:12.194Z,972.11
2018-02-14T11:10:12.181Z,972.12
2018-02-14T11:11:12.157Z,972.13
2018-02-14T11:12:12.143Z,972.17
2018-02-14T11:13:12.122Z,972.14
2018-02-14T11:14:12.104Z,972.11
2018-02-14T11:15:12.087Z,972.10
2018-02-14T11:16:12.067Z,972.06
2018-02-14T11:17:12.056Z,972.03
2018-02-14T11:18:12.033Z,972.02
2018-02-14T11:19:12.023Z,972.01
2018-02-14T11:20:11.997Z,972.00
2018-02-14T11:21:11.980Z,971.95
2018-02-14T11:22:11.961Z,971.99
2018-02-14T11:23:11.945Z,971.99
2018-02-14T11:24:11.927Z,971.96
2018-02-14T11:25:11.912Z,971.98
2018-02-14T11:26:11.893Z,972.02
2018-02-14T11:27:11.878Z,972.02
2018-02-14T11:28:11.859Z,972.06
2018-02-14T11:29:11.840Z,972.09
2018-02-14T11:30:11.823Z,972.04
2018-02-14T11:31:11.815Z,972.05
2018-02-14T11:32:11.789Z,972.06
2018-02-14T11:33:11.770Z,972.07
2018-02-14T11:34:11.754Z,972.09
2018-02-14T11:35:11.736Z,972.07
2018-02-14T11:36:11.723Z,972.08
2018-02-14T11:37:11.700Z,972.08
2018-02-14T11:38:11.683Z,972.04
2018-02-14T11:39:11.667Z,971.98
2018-02-14T11:40:11.650Z,971.99
2018-02-14T11:41:11.635Z,971.97
2018-02-14T11:42:11.617Z,971.99
2018-02-14T11:43:11.596Z,972.03
2018-02-14T11:44:11.582Z,972.03
2018-02-14T11:45:11.564Z,972.03
2018-02-14T11:46:11.545Z,971.98
2018-02-14T11:47:11.536Z,972.01
2018-02-14T11:48:11.512Z,972.03
2018-02-14T11:49:11.494Z,971.96
2018-02-14T11:50:11.477Z,971.98
2018-02-14T11:51:11.458Z,972.00
2018-02-14T11:52:11.447Z,972.03
2018-02-14T11:53:11.428Z,971.99
2018-02-14T11:54:11.415Z,972.01
2018-02-14T11:55:11.394Z,971.99
2018-02-14T11:56:11.378Z,971.98
2018-02-14T11:57:11.357Z,971.98
2018-02-14T11:58:11.345Z,972.00
2018-02-14T11:59:11.329Z,972.02
2018-02-14T12:00:11.304Z,972.02
2018-02-14T12:01:11.292Z,971.99
2018-02-14T12:02:11.272Z,971.97
2018-02-14T12:03:11.255Z,971.97
2018-02-14T12:04:11.238Z,971.98
2018-02-14T12:05:11.223Z,971.95
2018-02-14T12:06:11.209Z,971.97
2018-02-14T12:07:11.193Z,971.99
2018-02-14T12:08:11.173Z,972.01
2018-02-14T12:09:11.154Z,971.96
2018-02-14T12:10:11.141Z,971.95
2018-02-14T12:11:11.121Z,971.94
2018-02-14T12:12:11.145Z,971.92
2018-02-14T12:13:11.085Z,971.91
2018-02-14T12:14:11.069Z,971.97
2018-02-14T12:15:11.054Z,971.93
2018-02-14T12:16:11.039Z,971.98
2018-02-14T12:17:11.025Z,971.96
2018-02-14T12:18:11.006Z,971.99
2018-02-14T12:19:10.988Z,971.96
2018-02-14T12:20:10.970Z,972.01
2018-02-14T12:21:10.958Z,972.01
2018-02-14T12:22:10.936Z,971.97
2018-02-14T12:23:10.918Z,971.97
2018-02-14T12:24:10.901Z,971.98
2018-02-14T12:25:10.891Z,971.98
2018-02-14T12:26:10.869Z,971.93
2018-02-14T12:27:10.851Z,971.97
2018-02-14T12:28:10.841Z,971.92